Time;durP1;ratioP1;P1;durP2;ratioP2;P2;SDS_P1;SDS_P2;PMS_P1;PMS_P2;Temp;Humidity;BMP_temperature;BMP_pressure;BME280_temperature;BME280_humidity;BME280_pressure;Samples;Min_cycle;Max_cycle;Signal;HPM_P1;HPM_P2
2023/06/16 00:01:53;;;;;;;6.50;6.00;;;;;;;22.93;93.69;98865.22;5035415;28;20197;-71
2023/06/16 00:04:21;;;;;;;6.03;5.53;;;;;;;22.87;92.63;98869.09;5035002;28;20202;-71
2023/06/16 00:06:48;;;;;;;7.10;6.40;;;;;;;22.88;93.04;98873.41;5035586;28;20232;-71
2023/06/16 00:09:16;;;;;;;7.63;6.93;;;;;;;22.90;93.27;98879.34;5035334;28;20241;-71
2023/06/16 00:11:42;;;;;;;10.77;6.67;;;;;;;22.93;93.51;98878.78;5035502;28;20202;-71
2023/06/16 00:14:09;;;;;;;7.43;6.43;;;;;;;22.93;93.92;98881.47;5035090;28;20226;-71
2023/06/16 00:16:36;;;;;;;7.00;6.30;;;;;;;22.94;93.77;98883.09;5035564;28;20623;-71
2023/06/16 00:19:03;;;;;;;10.50;6.30;;;;;;;22.94;93.82;98885.78;5035275;28;20189;-71
2023/06/16 00:21:38;;;;;;;5.87;5.47;;;;;;;22.88;92.18;98878.84;5034965;28;20198;-71
2023/06/16 00:24:06;;;;;;;5.73;5.40;;;;;;;22.89;92.16;98879.63;5035601;28;20190;-71
2023/06/16 00:26:34;;;;;;;6.17;5.57;;;;;;;22.86;92.06;98889.16;5034725;28;20641;-71
2023/06/16 00:29:01;;;;;;;6.87;6.27;;;;;;;22.83;92.20;98888.94;5034919;28;20620;-72
2023/06/16 00:31:29;;;;;;;10.17;6.00;;;;;;;22.80;92.67;98882.19;5034914;28;20252;-71
2023/06/16 00:33:56;;;;;;;6.53;6.00;;;;;;;22.72;93.45;98863.06;5034736;28;20256;-71
2023/06/16 00:36:23;;;;;;;7.20;5.33;;;;;;;22.64;94.69;98856.38;5034780;28;20262;-71
2023/06/16 00:38:49;;;;;;;6.53;6.03;;;;;;;22.57;95.55;98852.41;5035237;28;20275;-72
2023/06/16 00:41:16;;;;;;;8.27;6.10;;;;;;;22.49;94.40;98834.91;5034987;28;20284;-72
2023/06/16 00:43:44;;;;;;;6.40;5.90;;;;;;;22.36;94.31;98842.88;5034588;28;20198;-72
2023/06/16 00:46:20;;;;;;;8.63;6.17;;;;;;;22.34;94.46;98853.19;5034712;28;20228;-72
2023/06/16 00:48:47;;;;;;;6.33;5.70;;;;;;;22.30;94.14;98860.28;5034486;28;20189;-71
2023/06/16 00:51:13;;;;;;;6.57;5.97;;;;;;;22.31;94.16;98868.09;5034408;28;20560;-71
2023/06/16 00:53:40;;;;;;;6.37;5.73;;;;;;;22.24;93.62;98867.63;5034338;28;20231;-73
2023/06/16 00:56:07;;;;;;;7.67;5.63;;;;;;;22.23;94.15;98854.38;5034460;28;20573;-72
2023/06/16 00:58:34;;;;;;;6.80;6.20;;;;;;;22.23;93.85;98854.38;5034364;28;20619;-72
2023/06/16 01:01:03;;;;;;;6.77;6.27;;;;;;;22.20;93.69;98858.47;5034090;28;20599;-73
2023/06/16 01:03:32;;;;;;;7.00;6.40;;;;;;;22.19;94.02;98864.97;5034437;28;20202;-71
2023/06/16 01:06:05;;;;;;;9.43;5.63;;;;;;;22.18;94.01;98857.97;5034047;28;20193;-71
2023/06/16 01:08:39;;;;;;;6.10;5.70;;;;;;;22.16;93.96;98857.44;5033864;28;20193;-71
2023/06/16 01:11:11;;;;;;;6.60;6.00;;;;;;;22.11;94.26;98859.38;5034318;28;20183;-71
2023/06/16 01:13:52;;;;;;;6.60;6.10;;;;;;;22.07;94.71;98858.34;5034090;28;20263;-71
2023/06/16 01:16:28;;;;;;;8.63;6.73;;;;;;;22.07;94.82;98853.75;5034450;28;20185;-71
2023/06/16 01:18:56;;;;;;;6.47;5.87;;;;;;;22.03;94.27;98855.41;5034516;28;20200;-71
2023/06/16 01:21:32;;;;;;;6.93;6.37;;;;;;;21.89;93.93;98857.16;5033984;28;20194;-71
2023/06/16 01:24:06;;;;;;;7.07;6.50;;;;;;;21.79;94.68;98854.53;5033883;28;20200;-71
2023/06/16 01:26:34;;;;;;;6.93;6.23;;;;;;;21.79;94.66;98848.31;5033618;28;20190;-71
2023/06/16 01:29:05;;;;;;;7.40;6.17;;;;;;;21.76;94.36;98849.69;5034065;28;20193;-71
2023/06/16 01:31:33;;;;;;;6.43;5.93;;;;;;;21.72;94.32;98851.34;5033595;28;20193;-71
2023/06/16 01:34:02;;;;;;;6.50;5.93;;;;;;;21.71;94.60;98840.81;5033737;28;20613;-73
2023/06/16 01:36:31;;;;;;;6.60;6.03;;;;;;;21.72;94.69;98845.94;5033470;28;20201;-70
2023/06/16 01:39:00;;;;;;;6.83;6.43;;;;;;;21.73;94.51;98850.28;5033213;28;20717;-71
2023/06/16 01:41:29;;;;;;;7.00;6.43;;;;;;;21.71;94.65;98847.03;5033141;28;20735;-71
2023/06/16 01:43:57;;;;;;;6.83;6.20;;;;;;;21.70;94.85;98845.44;5033138;28;20193;-71
2023/06/16 01:46:25;;;;;;;7.67;6.07;;;;;;;21.71;94.90;98851.63;5033136;28;20248;-71
2023/06/16 01:48:52;;;;;;;6.80;6.40;;;;;;;21.66;95.16;98844.34;5033755;28;20263;-71
2023/06/16 01:51:20;;;;;;;6.67;6.27;;;;;;;21.69;95.57;98843.78;5033518;28;20197;-71
2023/06/16 01:53:47;;;;;;;6.87;6.47;;;;;;;21.54;95.60;98846.63;5033368;28;20576;-71
2023/06/16 01:56:15;;;;;;;7.03;6.50;;;;;;;21.51;95.40;98841.75;5033041;28;20266;-71
2023/06/16 01:58:43;;;;;;;6.40;6.00;;;;;;;21.48;95.58;98841.53;5033518;28;20205;-72
2023/06/16 02:01:15;;;;;;;7.27;6.57;;;;;;;21.42;95.35;98843.47;5032939;28;20209;-71
2023/06/16 02:03:46;;;;;;;7.53;6.83;;;;;;;21.29;95.94;98843.28;5033673;28;20247;-71
2023/06/16 02:06:18;;;;;;;6.90;6.50;;;;;;;21.21;96.72;98842.00;5032945;28;20185;-71
2023/06/16 02:08:47;;;;;;;7.30;6.63;;;;;;;20.94;97.47;98838.13;5033023;28;20538;-71
2023/06/16 02:11:14;;;;;;;7.90;7.30;;;;;;;20.68;97.92;98826.59;5032854;28;20201;-71
2023/06/16 02:13:43;;;;;;;7.37;6.83;;;;;;;20.89;98.18;98841.59;5033282;28;20229;-70
2023/06/16 02:16:11;;;;;;;7.63;6.90;;;;;;;20.87;98.22;98841.09;5032562;28;20194;-70
2023/06/16 02:18:39;;;;;;;8.60;7.13;;;;;;;20.93;98.76;98840.00;5032687;28;20193;-70
2023/06/16 02:21:05;;;;;;;8.60;7.57;;;;;;;20.97;98.56;98834.84;5032433;28;20568;-70
2023/06/16 02:23:32;;;;;;;7.43;6.53;;;;;;;21.00;98.61;98840.50;5032700;28;20231;-70
2023/06/16 02:25:59;;;;;;;8.73;7.93;;;;;;;20.96;98.22;98847.53;5032387;28;20619;-70
2023/06/16 02:28:26;;;;;;;7.60;7.20;;;;;;;20.81;98.94;98841.38;5033027;28;20259;-71
2023/06/16 02:30:54;;;;;;;8.33;7.50;;;;;;;20.64;100.00;98847.13;5033036;28;20205;-72
2023/06/16 02:33:21;;;;;;;9.10;8.47;;;;;;;20.71;100.00;98838.72;5032149;28;20626;-71
2023/06/16 02:35:47;;;;;;;9.40;8.80;;;;;;;20.75;100.00;98837.91;5032212;28;20580;-71
2023/06/16 02:38:14;;;;;;;9.70;8.87;;;;;;;20.70;100.00;98839.81;5032801;28;20229;-71
2023/06/16 02:40:41;;;;;;;11.03;9.97;;;;;;;20.74;100.00;98838.97;5032535;28;20283;-71
2023/06/16 02:43:08;;;;;;;10.00;9.33;;;;;;;20.75;100.00;98837.91;5032726;28;20197;-71
2023/06/16 02:45:34;;;;;;;10.00;9.30;;;;;;;20.67;100.00;98830.38;5032724;28;20564;-71
2023/06/16 02:48:02;;;;;;;10.53;9.67;;;;;;;20.67;100.00;98841.97;5032185;28;20639;-72
2023/06/16 02:50:30;;;;;;;10.13;9.20;;;;;;;20.63;100.00;98829.31;5032241;28;20197;-72
2023/06/16 02:52:57;;;;;;;9.97;9.30;;;;;;;20.73;100.00;98840.06;5032346;28;20198;-71
2023/06/16 02:55:24;;;;;;;11.20;9.20;;;;;;;20.66;100.00;98844.94;5032232;28;20233;-71
2023/06/16 02:57:51;;;;;;;11.33;9.70;;;;;;;20.71;100.00;98842.25;5032432;28;20284;-71
2023/06/16 03:00:18;;;;;;;14.10;12.90;;;;;;;20.72;100.00;98849.25;5032057;28;20684;-71
2023/06/16 03:02:45;;;;;;;13.37;12.10;;;;;;;20.64;100.00;98844.44;5032424;28;20279;-71
2023/06/16 03:05:18;;;;;;;12.20;11.10;;;;;;;20.59;100.00;98849.84;5031543;28;20205;-72
2023/06/16 03:07:44;;;;;;;12.03;11.00;;;;;;;20.61;100.00;98844.97;5031848;28;20414;-71
2023/06/16 03:10:11;;;;;;;15.40;14.13;;;;;;;20.67;100.00;98847.38;5031699;28;20193;-71
2023/06/16 03:12:38;;;;;;;11.47;10.43;;;;;;;20.70;100.00;98846.00;5031651;28;20201;-72
2023/06/16 03:15:06;;;;;;;12.03;11.03;;;;;;;20.59;100.00;98822.88;5032156;28;20221;-71
2023/06/16 03:17:33;;;;;;;14.60;13.37;;;;;;;20.79;100.00;98855.16;5031794;28;20201;-73
2023/06/16 03:20:00;;;;;;;20.40;18.47;;;;;;;20.77;100.00;98851.91;5031732;28;20202;-72
2023/06/16 03:22:28;;;;;;;11.83;10.83;;;;;;;20.47;100.00;98833.16;5031976;28;20201;-71
2023/06/16 03:24:54;;;;;;;11.07;9.97;;;;;;;20.64;100.00;98847.13;5031713;28;20205;-71
2023/06/16 03:27:21;;;;;;;10.97;10.10;;;;;;;20.61;100.00;98853.06;5031902;28;20259;-70
2023/06/16 03:29:48;;;;;;;11.83;10.70;;;;;;;20.45;100.00;98854.19;5031261;28;20731;-70
2023/06/16 03:32:14;;;;;;;12.70;11.43;;;;;;;20.38;100.00;98854.50;5033197;28;20266;-71
2023/06/16 03:34:44;;;;;;;11.90;10.80;;;;;;;20.48;100.00;98859.06;5036062;28;20229;-71
2023/06/16 03:37:10;;;;;;;13.33;11.97;;;;;;;20.48;100.00;98861.75;5035478;28;20196;-71
2023/06/16 03:39:39;;;;;;;14.80;13.40;;;;;;;20.40;100.00;98851.53;5035504;28;20291;-72
2023/06/16 03:42:07;;;;;;;15.77;14.17;;;;;;;20.47;100.00;98841.25;5036220;28;20197;-72
2023/06/16 03:44:33;;;;;;;20.43;13.73;;;;;;;20.55;100.00;98848.78;5036150;28;20204;-72
2023/06/16 03:47:00;;;;;;;17.07;15.40;;;;;;;20.53;100.00;98850.94;5035432;28;20657;-72
2023/06/16 03:49:27;;;;;;;17.80;16.37;;;;;;;20.40;100.00;98856.94;5035972;28;20197;-72
2023/06/16 03:51:54;;;;;;;19.27;17.20;;;;;;;20.31;100.00;98853.19;5036014;28;20244;-72
2023/06/16 03:54:22;;;;;;;19.10;17.30;;;;;;;20.38;100.00;98849.09;5035738;28;20682;-72
2023/06/16 03:56:50;;;;;;;21.90;17.80;;;;;;;20.50;100.00;98846.13;5035567;28;20193;-72
2023/06/16 03:59:16;;;;;;;18.73;17.03;;;;;;;20.54;100.00;98842.56;5035593;28;20239;-72
2023/06/16 04:01:43;;;;;;;18.67;15.27;;;;;;;20.63;100.00;98844.69;5035559;28;20252;-71
2023/06/16 04:04:10;;;;;;;16.47;15.00;;;;;;;20.74;100.00;98841.66;5035113;28;20201;-71
2023/06/16 04:06:37;;;;;;;15.57;14.20;;;;;;;20.83;100.00;98845.44;5035051;28;20194;-71
2023/06/16 04:09:04;;;;;;;16.43;14.93;;;;;;;20.91;100.00;98850.28;5035236;28;20197;-71
2023/06/16 04:11:32;;;;;;;14.93;13.43;;;;;;;20.89;100.00;98848.88;5035442;28;20255;-71
2023/06/16 04:14:00;;;;;;;15.07;12.97;;;;;;;20.86;100.00;98844.06;5034783;28;20229;-71
2023/06/16 04:16:26;;;;;;;14.13;12.67;;;;;;;20.93;100.00;98850.78;5034864;28;20193;-70
2023/06/16 04:18:53;;;;;;;14.73;13.37;;;;;;;20.93;100.00;98837.28;5034782;28;20665;-71
2023/06/16 04:21:20;;;;;;;15.23;13.70;;;;;;;20.95;100.00;98847.81;5034831;28;20197;-71
2023/06/16 04:23:46;;;;;;;16.23;12.87;;;;;;;21.04;100.00;98841.56;5034480;28;20189;-70
2023/06/16 04:26:19;;;;;;;17.43;13.83;;;;;;;21.16;100.00;98846.63;5034457;28;20657;-71
2023/06/16 04:28:45;;;;;;;15.53;14.03;;;;;;;21.19;100.00;98848.75;5034391;28;20220;-70
2023/06/16 04:31:14;;;;;;;14.90;13.33;;;;;;;21.15;99.81;98837.69;5034687;28;20201;-70
2023/06/16 04:33:42;;;;;;;15.47;14.03;;;;;;;21.11;100.00;98831.22;5034601;28;20197;-71
2023/06/16 04:36:08;;;;;;;17.77;14.60;;;;;;;21.21;100.00;98839.28;5034577;28;20288;-70
2023/06/16 04:38:35;;;;;;;17.50;14.80;;;;;;;21.14;99.84;98841.50;5034596;28;20201;-71
2023/06/16 04:41:02;;;;;;;18.47;15.33;;;;;;;21.13;100.00;98839.06;5034661;28;20283;-71
2023/06/16 04:43:29;;;;;;;14.67;13.30;;;;;;;21.27;100.00;98840.06;5034323;28;20200;-70
2023/06/16 04:45:57;;;;;;;16.63;14.97;;;;;;;21.40;99.71;98845.63;5034628;28;20197;-69
2023/06/16 04:48:25;;;;;;;16.17;14.43;;;;;;;21.43;98.91;98844.28;5034235;28;20559;-71
2023/06/16 04:50:52;;;;;;;22.53;14.83;;;;;;;21.67;99.83;98840.56;5033935;28;20201;-71
2023/06/16 04:53:20;;;;;;;15.57;13.63;;;;;;;22.37;97.09;98845.28;5034203;28;20255;-70
2023/06/16 04:55:47;;;;;;;21.20;17.83;;;;;;;22.96;92.93;98845.69;5034015;28;20572;-69
2023/06/16 04:58:13;;;;;;;22.33;19.23;;;;;;;23.54;90.40;98844.31;5033751;28;20736;-70
2023/06/16 05:00:40;;;;;;;22.97;20.43;;;;;;;23.80;86.65;98848.19;5034042;28;20193;-69
2023/06/16 05:03:07;;;;;;;25.17;20.40;;;;;;;24.26;87.42;98849.03;5033659;28;20249;-69
2023/06/16 05:05:35;;;;;;;21.80;18.07;;;;;;;24.76;83.04;98864.38;5034268;28;20578;-69
2023/06/16 05:08:01;;;;;;;14.43;13.00;;;;;;;24.90;78.72;98872.50;5033693;28;20195;-70
2023/06/16 05:10:28;;;;;;;15.00;13.77;;;;;;;25.11;79.16;98867.44;5033921;28;20223;-69
2023/06/16 05:12:57;;;;;;;13.40;12.00;;;;;;;25.81;74.87;98887.56;5034134;28;20197;-70
2023/06/16 05:15:24;;;;;;;13.53;12.37;;;;;;;25.79;75.25;98881.63;5033834;28;20232;-70
2023/06/16 05:17:51;;;;;;;15.00;12.80;;;;;;;26.22;73.33;98882.75;5034260;28;20258;-69
2023/06/16 05:20:18;;;;;;;13.07;11.97;;;;;;;26.33;71.61;98835.84;5033469;28;20243;-70
2023/06/16 05:22:46;;;;;;;14.10;12.10;;;;;;;26.94;70.49;98873.09;5033625;28;20193;-69
2023/06/16 05:25:13;;;;;;;12.33;11.33;;;;;;;27.41;67.15;98888.63;5033638;28;20200;-69
2023/06/16 05:27:39;;;;;;;14.73;13.47;;;;;;;27.33;67.34;98881.22;5033744;28;20263;-69
2023/06/16 05:30:07;;;;;;;13.57;12.37;;;;;;;26.96;68.11;98881.78;5033613;28;20197;-69
2023/06/16 05:32:34;;;;;;;12.90;12.00;;;;;;;26.84;68.61;98871.50;5033228;28;20665;-70
2023/06/16 05:35:01;;;;;;;14.30;13.30;;;;;;;25.89;71.65;98865.06;5033350;28;20286;-70
2023/06/16 05:37:28;;;;;;;12.13;11.00;;;;;;;26.04;72.47;98865.50;5032950;28;20656;-70
2023/06/16 05:39:56;;;;;;;12.10;11.00;;;;;;;26.28;71.86;98865.97;5033157;28;20233;-70
2023/06/16 05:42:23;;;;;;;11.53;10.57;;;;;;;26.66;68.72;98888.13;5032874;28;20229;-69
2023/06/16 05:44:50;;;;;;;11.20;10.33;;;;;;;27.29;67.05;98881.06;5032246;28;20263;-70
2023/06/16 05:47:17;;;;;;;13.17;11.97;;;;;;;27.44;66.05;98886.03;5032750;28;20200;-69
2023/06/16 05:49:43;;;;;;;14.50;13.30;;;;;;;27.47;66.05;98879.16;5032496;28;20255;-69
2023/06/16 05:52:10;;;;;;;16.53;15.33;;;;;;;27.41;66.16;98883.16;5032807;28;20267;-69
2023/06/16 05:54:37;;;;;;;18.53;16.77;;;;;;;27.31;67.31;98883.50;5031973;28;20594;-69
2023/06/16 05:57:06;;;;;;;19.87;17.87;;;;;;;27.20;66.80;98882.97;5032775;28;20193;-70
2023/06/16 05:59:32;;;;;;;20.23;18.23;;;;;;;27.16;68.21;98883.91;5032658;28;20229;-69
2023/06/16 06:01:59;;;;;;;19.07;17.00;;;;;;;26.74;69.49;98881.91;5032277;28;20665;-71
2023/06/16 06:04:30;;;;;;;19.80;17.83;;;;;;;26.43;69.98;98878.34;5032420;28;20206;-69
2023/06/16 06:06:57;;;;;;;16.53;15.10;;;;;;;26.83;69.52;98875.31;5032270;28;20492;-70
2023/06/16 06:09:25;;;;;;;15.87;14.33;;;;;;;27.80;65.22;98880.25;5032424;28;20221;-70
2023/06/16 06:11:52;;;;;;;17.00;14.30;;;;;;;27.96;64.04;98884.13;5032476;28;20735;-69
2023/06/16 06:14:20;;;;;;;14.80;13.33;;;;;;;28.48;63.13;98891.09;5032213;28;20255;-70
2023/06/16 06:16:46;;;;;;;15.00;13.70;;;;;;;29.34;58.90;98897.72;5032434;28;20193;-69
2023/06/16 06:19:13;;;;;;;15.03;13.83;;;;;;;29.62;56.94;98912.53;5032768;28;20619;-69
2023/06/16 06:21:40;;;;;;;14.50;13.50;;;;;;;29.64;57.19;98912.97;5032269;28;20189;-69
2023/06/16 06:24:07;;;;;;;12.73;11.43;;;;;;;30.00;56.15;98904.94;5032413;28;20205;-69
2023/06/16 06:26:34;;;;;;;13.63;12.43;;;;;;;30.38;54.45;98910.22;5032429;28;20209;-70
2023/06/16 06:29:01;;;;;;;13.53;12.40;;;;;;;29.87;54.59;98910.69;5032242;28;20193;-71
2023/06/16 06:31:29;;;;;;;18.13;13.33;;;;;;;29.61;56.90;98901.91;5032582;28;20247;-69
2023/06/16 06:33:56;;;;;;;13.57;12.23;;;;;;;29.55;56.47;98898.53;5031853;28;20205;-70
2023/06/16 06:36:23;;;;;;;14.57;13.27;;;;;;;29.33;56.78;98893.41;5032382;28;20220;-70
2023/06/16 06:38:50;;;;;;;17.07;15.53;;;;;;;29.23;57.41;98896.50;5032381;28;20213;-68
2023/06/16 06:41:17;;;;;;;15.50;14.07;;;;;;;28.84;59.71;98894.16;5032637;28;20279;-69
2023/06/16 06:43:44;;;;;;;15.60;14.30;;;;;;;28.85;59.16;98882.88;5032202;28;20221;-70
2023/06/16 06:46:11;;;;;;;16.03;14.73;;;;;;;28.97;59.20;98884.91;5032395;28;20201;-69
2023/06/16 06:48:39;;;;;;;16.33;14.83;;;;;;;28.09;60.47;98874.97;5032154;28;20247;-71
2023/06/16 06:51:06;;;;;;;19.20;14.30;;;;;;;28.10;60.68;98879.28;5032061;28;20193;-70
2023/06/16 06:53:32;;;;;;;14.83;13.63;;;;;;;28.02;59.78;98888.31;5032087;28;20194;-70
2023/06/16 06:55:59;;;;;;;15.13;13.90;;;;;;;27.73;60.70;98879.97;5031965;28;20225;-71
2023/06/16 06:58:26;;;;;;;14.30;13.30;;;;;;;27.96;59.81;98889.59;5031120;28;20621;-71
2023/06/16 07:00:53;;;;;;;15.57;14.13;;;;;;;28.05;59.71;98887.66;5031585;28;20255;-69
2023/06/16 07:03:19;;;;;;;16.53;14.80;;;;;;;27.53;61.88;98870.50;5031334;28;20193;-70
2023/06/16 07:05:47;;;;;;;16.47;14.77;;;;;;;27.51;62.14;98880.91;5031199;28;20197;-69
2023/06/16 07:08:14;;;;;;;15.93;14.63;;;;;;;27.53;62.39;98880.59;5031223;28;20186;-69
2023/06/16 07:10:41;;;;;;;14.70;13.40;;;;;;;27.65;61.34;98872.56;5031552;28;20275;-70
2023/06/16 07:13:08;;;;;;;15.07;13.60;;;;;;;27.83;60.59;98874.19;5031498;28;20212;-72
2023/06/16 07:15:34;;;;;;;14.83;13.53;;;;;;;28.20;59.47;98873.47;5031074;28;20283;-71
2023/06/16 07:18:01;;;;;;;14.93;13.70;;;;;;;28.39;58.76;98884.81;5031202;28;20596;-72
2023/06/16 07:20:28;;;;;;;16.37;13.37;;;;;;;28.08;59.74;98878.78;5031219;28;20197;-71
2023/06/16 07:22:56;;;;;;;17.47;13.00;;;;;;;28.00;60.35;98874.16;5031150;28;20194;-71
2023/06/16 07:25:22;;;;;;;15.13;13.80;;;;;;;27.97;59.38;98874.81;5030889;28;20197;-72
2023/06/16 07:27:49;;;;;;;14.73;12.77;;;;;;;27.98;60.00;98873.69;5031298;28;20251;-72
2023/06/16 07:30:16;;;;;;;14.93;13.37;;;;;;;28.06;60.34;98881.06;5031718;28;20267;-72
2023/06/16 07:32:43;;;;;;;20.87;14.10;;;;;;;28.17;59.94;98876.88;5031575;28;20193;-71
2023/06/16 07:35:09;;;;;;;14.17;12.97;;;;;;;28.33;59.17;98883.38;5031296;28;20232;-71
2023/06/16 07:37:36;;;;;;;14.17;12.77;;;;;;;28.67;58.04;98880.56;5031323;28;20251;-71
2023/06/16 07:40:08;;;;;;;14.70;13.20;;;;;;;28.84;57.41;98878.53;5030700;28;20711;-71
2023/06/16 07:42:34;;;;;;;17.07;12.97;;;;;;;28.85;56.96;98884.81;5030766;28;20720;-72
2023/06/16 07:45:01;;;;;;;13.53;12.53;;;;;;;29.09;56.40;98885.84;5031171;28;20259;-71
2023/06/16 07:47:28;;;;;;;14.03;12.93;;;;;;;29.48;55.79;98887.31;5031534;28;20255;-71
2023/06/16 07:49:55;;;;;;;11.67;10.77;;;;;;;29.71;54.38;98898.75;5031495;28;20189;-71
2023/06/16 07:52:21;;;;;;;9.77;9.07;;;;;;;29.40;51.74;98901.06;5031531;28;20666;-69
2023/06/16 07:54:48;;;;;;;9.20;8.50;;;;;;;29.39;52.04;98903.00;5031422;28;20194;-69
2023/06/16 07:57:16;;;;;;;9.53;8.63;;;;;;;29.46;51.35;98906.03;5030940;28;20194;-70
2023/06/16 07:59:43;;;;;;;8.93;8.30;;;;;;;29.46;51.40;98902.47;5031273;28;20250;-71
2023/06/16 08:02:09;;;;;;;10.73;9.73;;;;;;;29.50;52.77;98895.19;5030411;28;20205;-71
2023/06/16 08:04:36;;;;;;;11.53;10.73;;;;;;;29.77;52.28;98887.28;5030798;28;20193;-70
2023/06/16 08:07:03;;;;;;;9.60;8.80;;;;;;;29.86;50.98;98888.00;5030503;28;20193;-71
2023/06/16 08:09:30;;;;;;;11.13;10.23;;;;;;;30.03;51.15;98885.09;5030604;28;20247;-72
2023/06/16 08:11:56;;;;;;;14.53;11.40;;;;;;;30.09;50.79;98886.47;5031010;28;20549;-70
2023/06/16 08:14:26;;;;;;;10.83;10.03;;;;;;;29.84;52.46;98882.03;5031048;28;20267;-70
2023/06/16 08:16:52;;;;;;;11.97;10.03;;;;;;;30.12;52.37;98874.84;5030997;28;20221;-71
2023/06/16 08:19:19;;;;;;;11.30;10.50;;;;;;;30.04;52.71;98873.00;5034232;28;20288;-70
2023/06/16 08:21:46;;;;;;;18.23;12.20;;;;;;;29.50;53.91;98874.09;5034204;28;20233;-70
2023/06/16 08:24:12;;;;;;;12.93;11.63;;;;;;;29.47;54.53;98874.78;5034223;28;20190;-70
2023/06/16 08:26:39;;;;;;;12.43;11.23;;;;;;;29.58;54.67;98876.00;5034888;28;20254;-70
2023/06/16 08:29:06;;;;;;;13.43;12.00;;;;;;;29.75;54.38;98875.84;5034458;28;20658;-70
2023/06/16 08:31:34;;;;;;;14.77;12.23;;;;;;;29.90;53.44;98872.50;5035074;28;20198;-70
2023/06/16 08:34:01;;;;;;;13.20;11.77;;;;;;;29.79;54.73;98874.03;5034286;28;20231;-71
2023/06/16 08:36:27;;;;;;;14.33;12.93;;;;;;;29.96;54.10;98862.91;5033768;28;20235;-72
2023/06/16 08:38:54;;;;;;;15.47;13.37;;;;;;;30.22;53.46;98874.44;5034437;28;20189;-70
2023/06/16 08:41:21;;;;;;;13.37;12.27;;;;;;;30.27;52.45;98857.78;5034558;28;20634;-71
2023/06/16 08:43:50;;;;;;;25.10;12.93;;;;;;;30.44;51.85;98863.06;5033727;28;20253;-70
2023/06/16 08:46:17;;;;;;;12.50;11.47;;;;;;;30.63;50.66;98857.03;5033862;28;20284;-70
2023/06/16 08:48:45;;;;;;;13.20;11.50;;;;;;;30.76;50.55;98853.16;5034507;28;20188;-70
2023/06/16 08:51:15;;;;;;;8.77;7.20;;;;;;;30.89;47.57;98858.31;5033928;28;20193;-70
2023/06/16 08:53:43;;;;;;;6.77;6.17;;;;;;;30.82;44.37;98846.31;5034102;28;20189;-70
2023/06/16 08:56:11;;;;;;;10.43;6.73;;;;;;;30.99;45.19;98854.28;5033708;28;20229;-70
2023/06/16 08:58:40;;;;;;;9.50;8.80;;;;;;;31.15;45.22;98853.22;5034156;28;20284;-70
2023/06/16 09:01:07;;;;;;;8.73;7.87;;;;;;;31.36;44.56;98836.63;5033982;28;20229;-70
2023/06/16 09:03:34;;;;;;;8.27;7.67;;;;;;;31.60;43.49;98829.09;5033737;28;20658;-71
2023/06/16 09:06:04;;;;;;;6.93;6.40;;;;;;;31.63;42.28;98831.16;5033539;28;20285;-71
2023/06/16 09:08:31;;;;;;;13.13;7.70;;;;;;;31.45;42.70;98835.34;5033898;28;20193;-71
2023/06/16 09:10:58;;;;;;;6.70;6.03;;;;;;;31.44;42.67;98832.94;5033873;28;20201;-71
2023/06/16 09:13:25;;;;;;;6.87;6.17;;;;;;;31.43;41.79;98831.31;5033905;28;20193;-71
2023/06/16 09:15:56;;;;;;;6.17;5.17;;;;;;;31.15;42.44;98834.00;5033484;28;20571;-71
2023/06/16 09:18:24;;;;;;;5.27;4.77;;;;;;;30.84;41.30;98828.38;5034015;28;20185;-71
2023/06/16 09:20:52;;;;;;;5.93;5.40;;;;;;;30.85;41.46;98821.72;5033977;28;20261;-71
2023/06/16 09:23:29;;;;;;;5.83;5.37;;;;;;;30.72;41.62;98827.56;5034140;28;20198;-71
2023/06/16 09:25:56;;;;;;;5.97;5.37;;;;;;;30.68;42.46;98819.19;5034276;28;20197;-71
2023/06/16 09:28:34;;;;;;;7.07;5.80;;;;;;;30.63;42.31;98813.94;5033724;28;20681;-71
2023/06/16 09:31:02;;;;;;;5.70;4.87;;;;;;;30.34;43.02;98802.41;5033660;28;20272;-70
2023/06/16 09:33:29;;;;;;;6.57;5.97;;;;;;;30.35;43.54;98810.28;5033468;28;20193;-70
2023/06/16 09:35:55;;;;;;;7.00;6.40;;;;;;;29.93;45.04;98811.53;5033143;28;20731;-70
2023/06/16 09:38:23;;;;;;;6.50;5.93;;;;;;;29.66;46.63;98823.09;5033772;28;20197;-71
2023/06/16 09:40:51;;;;;;;6.80;6.40;;;;;;;29.07;48.40;98797.00;5033752;28;20661;-70
2023/06/16 09:43:18;;;;;;;7.13;6.47;;;;;;;28.81;49.83;98801.84;5033374;28;20578;-71
2023/06/16 09:45:45;;;;;;;10.63;7.20;;;;;;;28.71;50.87;98802.22;5033228;28;20197;-71
2023/06/16 09:48:12;;;;;;;7.20;6.57;;;;;;;28.63;52.26;98792.16;5034033;28;20224;-71
2023/06/16 09:50:40;;;;;;;7.80;6.90;;;;;;;28.74;51.77;98794.16;5032681;28;20278;-72
2023/06/16 09:53:08;;;;;;;7.23;6.33;;;;;;;28.01;54.13;98782.94;5033252;28;20251;-70
2023/06/16 09:55:38;;;;;;;6.97;5.80;;;;;;;28.12;54.31;98784.16;5032698;28;20185;-71
2023/06/16 09:58:07;;;;;;;6.70;5.47;;;;;;;28.23;53.87;98790.88;5033063;28;20192;-71
2023/06/16 10:00:34;;;;;;;5.83;5.30;;;;;;;28.33;53.47;98785.84;5033076;28;20197;-71
2023/06/16 10:03:03;;;;;;;8.20;5.07;;;;;;;28.51;52.61;98794.78;5033002;28;20194;-71
2023/06/16 10:05:32;;;;;;;5.20;4.80;;;;;;;28.59;51.58;98788.47;5032920;28;20259;-71
2023/06/16 10:07:59;;;;;;;5.27;4.87;;;;;;;28.75;51.80;98797.72;5032421;28;20661;-71
2023/06/16 10:10:27;;;;;;;7.93;4.80;;;;;;;28.70;50.41;98789.69;5032771;28;20197;-71
2023/06/16 10:12:55;;;;;;;6.53;4.30;;;;;;;28.84;49.66;98784.78;5032871;28;20195;-71
2023/06/16 10:15:24;;;;;;;4.87;4.47;;;;;;;28.96;49.46;98782.13;5032953;28;20220;-71
2023/06/16 10:17:52;;;;;;;6.03;4.00;;;;;;;28.95;49.40;98783.25;5032067;28;20280;-71
2023/06/16 10:20:20;;;;;;;4.60;4.30;;;;;;;28.92;48.03;98781.19;5032435;28;20197;-71
2023/06/16 10:22:47;;;;;;;4.37;4.17;;;;;;;28.97;47.83;98778.25;5032744;28;20764;-71
2023/06/16 10:25:14;;;;;;;4.63;4.40;;;;;;;29.10;47.45;98777.19;5032173;28;20640;-72
2023/06/16 10:27:42;;;;;;;6.63;4.37;;;;;;;29.09;47.21;98775.59;5032322;28;20197;-71
2023/06/16 10:30:16;;;;;;;3.60;3.40;;;;;;;28.97;47.39;98775.50;5032318;28;20262;-72
2023/06/16 10:32:47;;;;;;;3.97;3.77;;;;;;;28.93;47.59;98782.78;5032440;28;20197;-71
2023/06/16 10:35:14;;;;;;;4.37;3.97;;;;;;;28.95;46.94;98770.38;5032648;28;20365;-71
2023/06/16 10:37:41;;;;;;;5.83;3.70;;;;;;;28.88;46.75;98774.78;5032431;28;20220;-71
2023/06/16 10:40:12;;;;;;;8.93;4.10;;;;;;;28.22;48.22;98770.94;5032568;28;20233;-71
2023/06/16 10:42:40;;;;;;;3.70;3.40;;;;;;;28.46;46.66;98773.13;5032257;28;20182;-71
2023/06/16 10:45:24;;;;;;;3.50;3.20;;;;;;;28.15;45.50;98776.13;5032327;28;20621;-70
2023/06/16 10:47:59;;;;;;;3.30;3.00;;;;;;;28.26;44.77;98773.81;5032131;28;20251;-70
2023/06/16 10:50:41;;;;;;;5.77;3.47;;;;;;;28.24;45.66;98771.41;5031647;28;20327;-71
2023/06/16 10:53:10;;;;;;;3.83;3.13;;;;;;;27.86;46.74;98769.81;5031779;28;20189;-71
2023/06/16 10:55:41;;;;;;;3.97;3.67;;;;;;;27.85;47.43;98751.81;5032012;28;20285;-72
2023/06/16 10:58:26;;;;;;;4.43;3.40;;;;;;;28.08;47.21;98764.09;5031673;28;20683;-71
2023/06/16 11:01:24;;;;;;;4.03;3.47;;;;;;;28.11;47.59;98755.25;5031993;28;20190;-72
2023/06/16 11:04:01;;;;;;;4.37;3.97;;;;;;;28.15;47.39;98750.72;5031650;28;20232;-71
2023/06/16 11:06:28;;;;;;;4.27;3.57;;;;;;;28.30;45.76;98758.38;5031645;28;20193;-72
2023/06/16 11:08:57;;;;;;;4.77;3.13;;;;;;;28.41;46.21;98745.97;5031637;28;20198;-71
2023/06/16 11:11:32;;;;;;;3.77;3.47;;;;;;;28.54;47.05;98748.47;5032165;28;20284;-71
2023/06/16 11:14:00;;;;;;;7.77;4.47;;;;;;;28.51;46.99;98746.38;5031575;28;20196;-70
2023/06/16 11:16:27;;;;;;;4.70;4.07;;;;;;;28.63;47.05;98734.75;5031499;28;20287;-71
2023/06/16 11:18:55;;;;;;;4.00;3.37;;;;;;;28.71;46.98;98731.16;5031373;28;20624;-71
2023/06/16 11:21:26;;;;;;;5.43;4.10;;;;;;;28.88;46.93;98726.34;5031767;28;20232;-71
2023/06/16 11:23:52;;;;;;;4.60;3.93;;;;;;;28.89;47.38;98733.44;5031199;28;20186;-71
2023/06/16 11:26:20;;;;;;;4.67;4.33;;;;;;;28.94;47.28;98726.94;5031694;28;20646;-71
2023/06/16 11:28:50;;;;;;;4.20;4.00;;;;;;;29.04;47.44;98719.16;5031686;28;20197;-72